Time;durP1;ratioP1;P1;durP2;ratioP2;P2;SDS_P1;SDS_P2;PMS_P1;PMS_P2;Temp;Humidity;BMP_temperature;BMP_pressure;BME280_temperature;BME280_humidity;BME280_pressure;Samples;Min_cycle;Max_cycle;Signal;HPM_P1;HPM_P2
2021/09/20 00:00:50;;;;;;;5.55;2.80;;;12.90;74.20;;;;;;5138583;27;20027;-41
2021/09/20 00:03:15;;;;;;;5.13;2.70;;;12.90;74.20;;;;;;5139825;27;20322;-37
2021/09/20 00:05:41;;;;;;;6.00;3.20;;;12.90;74.20;;;;;;5139293;27;20369;-40
2021/09/20 00:08:07;;;;;;;8.63;3.38;;;12.90;74.10;;;;;;5139921;27;20108;-38
2021/09/20 00:10:33;;;;;;;6.45;2.55;;;12.90;74.30;;;;;;5139517;27;20019;-37
2021/09/20 00:12:58;;;;;;;4.80;2.75;;;12.80;74.10;;;;;;5139419;27;20027;-35
2021/09/20 00:15:24;;;;;;;3.85;2.40;;;12.80;74.20;;;;;;5139319;27;20092;-39
2021/09/20 00:17:50;;;;;;;4.60;2.63;;;12.80;74.00;;;;;;5138884;27;20031;-36
2021/09/20 00:20:16;;;;;;;3.05;2.17;;;12.80;74.00;;;;;;5139245;27;20507;-37
2021/09/20 00:22:42;;;;;;;3.45;2.20;;;12.80;74.10;;;;;;5139012;27;20109;-37
2021/09/20 00:25:09;;;;;;;4.60;2.00;;;12.80;73.90;;;;;;5139146;27;20411;-38
2021/09/20 00:27:35;;;;;;;4.70;1.90;;;12.80;73.80;;;;;;5139049;27;20019;-36
2021/09/20 00:30:02;;;;;;;2.35;1.70;;;12.80;73.90;;;;;;5138958;27;20360;-37
2021/09/20 00:32:28;;;;;;;2.38;1.70;;;12.80;73.60;;;;;;5139088;27;20030;-35
2021/09/20 00:34:53;;;;;;;3.25;1.77;;;12.70;73.70;;;;;;5138724;27;20042;-38
2021/09/20 00:37:19;;;;;;;3.38;1.38;;;12.70;73.50;;;;;;5138818;27;20023;-38
2021/09/20 00:39:45;;;;;;;1.73;1.48;;;12.70;74.00;;;;;;5138655;27;20039;-37
2021/09/20 00:42:10;;;;;;;1.50;1.33;;;12.60;73.40;;;;;;5138701;27;20079;-38
2021/09/20 00:44:36;;;;;;;2.17;1.40;;;12.60;73.50;;;;;;5138849;27;20072;-36
2021/09/20 00:47:02;;;;;;;1.42;1.20;;;12.60;73.40;;;;;;5138619;27;20108;-36
2021/09/20 00:49:27;;;;;;;1.13;0.90;;;12.50;73.50;;;;;;5138347;27;20027;-39
2021/09/20 00:51:53;;;;;;;3.05;1.08;;;12.50;73.50;;;;;;5138383;27;20023;-38
2021/09/20 00:54:19;;;;;;;2.83;1.33;;;12.50;73.50;;;;;;5138397;27;20304;-36
2021/09/20 00:56:44;;;;;;;1.00;0.90;;;12.40;73.70;;;;;;5138251;27;20068;-40
2021/09/20 00:59:10;;;;;;;2.50;1.60;;;12.50;73.80;;;;;;5138248;27;20035;-37
2021/09/20 01:01:36;;;;;;;2.83;1.48;;;12.40;73.90;;;;;;5138206;27;20031;-36
2021/09/20 01:04:02;;;;;;;1.88;1.27;;;12.40;73.80;;;;;;5138114;27;20035;-38
2021/09/20 01:06:28;;;;;;;2.60;1.13;;;12.40;73.90;;;;;;5138016;27;20060;-36
2021/09/20 01:08:54;;;;;;;4.13;1.35;;;12.40;73.90;;;;;;5137951;27;20035;-41
2021/09/20 01:11:21;;;;;;;2.75;1.20;;;12.40;74.00;;;;;;5136843;27;20110;-36
2021/09/20 01:13:47;;;;;;;1.88;1.23;;;12.40;74.00;;;;;;5137925;27;20488;-36
2021/09/20 01:16:12;;;;;;;1.52;1.23;;;12.40;74.10;;;;;;5138070;27;20114;-39
2021/09/20 01:18:38;;;;;;;2.75;1.30;;;12.40;74.00;;;;;;5137885;27;20269;-35
2021/09/20 01:21:04;;;;;;;1.17;1.02;;;12.40;73.70;;;;;;5137693;27;20042;-39
2021/09/20 01:23:30;;;;;;;1.35;1.02;;;12.40;73.60;;;;;;5138357;27;20323;-38
2021/09/20 01:25:55;;;;;;;1.48;1.02;;;12.40;73.60;;;;;;5137539;27;20307;-35
2021/09/20 01:28:21;;;;;;;2.55;1.50;;;12.40;73.80;;;;;;5138432;27;20034;-37
2021/09/20 01:30:47;;;;;;;4.28;1.02;;;12.40;73.50;;;;;;5137711;27;20035;-39
2021/09/20 01:33:12;;;;;;;2.72;1.20;;;12.40;73.40;;;;;;5137525;27;20323;-37
2021/09/20 01:35:38;;;;;;;3.95;1.38;;;12.40;73.60;;;;;;5137626;27;20118;-41
2021/09/20 01:38:04;;;;;;;2.17;1.05;;;12.40;73.80;;;;;;5137769;27;20035;-39
2021/09/20 01:40:30;;;;;;;2.47;1.10;;;12.40;73.80;;;;;;5137484;27;20411;-38
2021/09/20 01:42:56;;;;;;;3.92;1.67;;;12.50;73.90;;;;;;5137511;27;20031;-36
2021/09/20 01:45:25;;;;;;;2.03;1.30;;;12.50;73.90;;;;;;5137509;27;20103;-40
2021/09/20 01:47:51;;;;;;;3.45;1.50;;;12.50;73.60;;;;;;5137578;27;20054;-36
2021/09/20 01:50:17;;;;;;;3.45;1.50;;;12.50;73.40;;;;;;5137327;27;20106;-38
2021/09/20 01:52:42;;;;;;;2.00;1.48;;;12.50;73.20;;;;;;5137470;27;20069;-39
2021/09/20 01:55:09;;;;;;;1.73;1.55;;;12.50;73.20;;;;;;5137024;27;20104;-37
2021/09/20 01:57:35;;;;;;;1.60;1.50;;;12.40;73.10;;;;;;5137387;27;20118;-38
2021/09/20 02:00:01;;;;;;;2.53;1.33;;;12.50;73.30;;;;;;5137143;27;20383;-36
2021/09/20 02:02:27;;;;;;;2.25;1.40;;;12.40;73.20;;;;;;5137169;27;20027;-35
2021/09/20 02:04:52;;;;;;;3.15;1.30;;;12.40;73.40;;;;;;5136925;27;20031;-36
2021/09/20 02:07:18;;;;;;;3.90;1.25;;;12.50;73.30;;;;;;5137082;27;20034;-37
2021/09/20 02:09:44;;;;;;;4.75;1.52;;;12.40;73.10;;;;;;5136986;27;20027;-38
2021/09/20 02:12:09;;;;;;;3.17;1.55;;;12.40;73.00;;;;;;5137149;27;20290;-39
2021/09/20 02:14:35;;;;;;;2.13;1.13;;;12.40;73.10;;;;;;5136769;27;20027;-41
2021/09/20 02:17:01;;;;;;;2.60;1.00;;;12.40;73.20;;;;;;5136984;27;20015;-38
2021/09/20 02:19:27;;;;;;;1.20;1.10;;;12.40;73.10;;;;;;5136997;27;20034;-37
2021/09/20 02:21:52;;;;;;;2.03;1.13;;;12.40;73.10;;;;;;5136223;27;20026;-38
2021/09/20 02:24:18;;;;;;;3.10;1.00;;;12.40;73.00;;;;;;5136834;27;20552;-36
2021/09/20 02:26:44;;;;;;;1.45;1.10;;;12.40;73.00;;;;;;5136738;27;20054;-36
2021/09/20 02:29:09;;;;;;;2.50;1.10;;;12.40;73.00;;;;;;5136803;27;20027;-39
2021/09/20 02:31:35;;;;;;;3.28;1.33;;;12.40;73.10;;;;;;5136558;27;20115;-38
2021/09/20 02:34:01;;;;;;;1.88;1.40;;;12.30;73.00;;;;;;5136808;27;20035;-36
2021/09/20 02:36:26;;;;;;;2.30;1.20;;;12.30;73.10;;;;;;5136436;27;20042;-36
2021/09/20 02:38:52;;;;;;;3.53;1.40;;;12.30;73.30;;;;;;5136595;27;20049;-39
2021/09/20 02:41:18;;;;;;;10.50;1.88;;;12.30;73.20;;;;;;5136077;27;20060;-37
2021/09/20 02:43:44;;;;;;;2.35;1.30;;;12.30;73.30;;;;;;5136299;27;20031;-40
2021/09/20 02:46:11;;;;;;;3.75;1.90;;;12.30;73.30;;;;;;5136532;28;20023;-38
2021/09/20 02:48:36;;;;;;;2.53;1.35;;;12.30;73.30;;;;;;5136795;28;20446;-41
2021/09/20 02:51:03;;;;;;;4.03;1.85;;;12.30;73.30;;;;;;5136093;28;20059;-37
2021/09/20 02:53:29;;;;;;;3.42;1.52;;;12.30;73.30;;;;;;5136311;28;20042;-38
2021/09/20 02:55:56;;;;;;;1.38;1.27;;;12.30;73.40;;;;;;5136210;28;20047;-40
2021/09/20 02:58:22;;;;;;;3.35;1.77;;;12.30;73.50;;;;;;5136932;28;20038;-37
2021/09/20 03:00:47;;;;;;;9.00;2.22;;;12.30;73.50;;;;;;5136346;28;20035;-38
2021/09/20 03:03:13;;;;;;;4.05;1.70;;;12.30;73.30;;;;;;5136408;28;20061;-37
2021/09/20 03:05:38;;;;;;;3.35;2.10;;;12.30;73.30;;;;;;5136358;28;20039;-37
2021/09/20 03:08:05;;;;;;;5.22;2.20;;;12.30;73.30;;;;;;5136785;28;20051;-37
2021/09/20 03:10:33;;;;;;;4.05;2.00;;;12.20;73.30;;;;;;5136237;28;20122;-35
2021/09/20 03:12:58;;;;;;;1.90;1.35;;;12.20;73.50;;;;;;5136070;28;20034;-39
2021/09/20 03:15:24;;;;;;;4.13;1.65;;;12.20;73.50;;;;;;5136179;28;20031;-40
2021/09/20 03:17:50;;;;;;;3.22;1.70;;;12.30;73.60;;;;;;5136327;28;20398;-36
2021/09/20 03:20:16;;;;;;;3.97;1.60;;;12.30;73.70;;;;;;5136295;28;20483;-35
2021/09/20 03:22:42;;;;;;;8.27;2.20;;;12.30;73.70;;;;;;5136252;28;20039;-39
2021/09/20 03:25:10;;;;;;;2.58;1.73;;;12.30;73.70;;;;;;5136277;28;20098;-38
2021/09/20 03:27:37;;;;;;;4.40;1.77;;;12.30;73.60;;;;;;5136424;28;20015;-40
2021/09/20 03:30:05;;;;;;;4.50;1.98;;;12.30;73.50;;;;;;5136131;28;20432;-40
2021/09/20 03:32:31;;;;;;;3.58;2.00;;;12.30;73.60;;;;;;5136186;28;20023;-38
2021/09/20 03:34:56;;;;;;;3.00;1.80;;;12.30;73.70;;;;;;5137590;27;20460;-35
2021/09/20 03:37:22;;;;;;;3.45;1.83;;;12.30;73.60;;;;;;5139977;27;20110;-38
2021/09/20 03:39:48;;;;;;;5.63;2.67;;;12.30;73.50;;;;;;5139783;27;20110;-36
2021/09/20 03:42:14;;;;;;;3.65;2.00;;;12.40;73.60;;;;;;5139686;27;20312;-36
2021/09/20 03:44:39;;;;;;;6.53;2.20;;;12.40;73.60;;;;;;5139443;27;20076;-40
2021/09/20 03:47:05;;;;;;;5.97;2.95;;;12.40;73.70;;;;;;5139636;27;20024;-40
2021/09/20 03:49:31;;;;;;;4.15;2.40;;;12.40;73.80;;;;;;5139620;27;20035;-40
2021/09/20 03:51:56;;;;;;;3.90;2.42;;;12.40;73.80;;;;;;5139522;27;20023;-35
2021/09/20 03:54:22;;;;;;;4.50;2.08;;;12.40;73.70;;;;;;5139193;27;20066;-40
2021/09/20 03:56:48;;;;;;;4.55;2.55;;;12.40;73.70;;;;;;5139398;27;20410;-41
2021/09/20 03:59:13;;;;;;;3.58;2.25;;;12.50;73.70;;;;;;5139517;27;20027;-37
2021/09/20 04:01:39;;;;;;;2.65;1.92;;;12.50;73.80;;;;;;5139144;27;20034;-40
2021/09/20 04:04:05;;;;;;;3.05;2.13;;;12.50;73.50;;;;;;5139883;27;20027;-38
2021/09/20 04:06:30;;;;;;;10.52;2.35;;;12.50;73.80;;;;;;5139439;27;20056;-39
2021/09/20 04:09:00;;;;;;;7.13;2.42;;;12.50;73.70;;;;;;5139123;27;20032;-36
2021/09/20 04:11:26;;;;;;;4.85;2.40;;;12.50;73.80;;;;;;5139304;27;20030;-40
2021/09/20 04:13:52;;;;;;;5.78;2.15;;;12.50;73.60;;;;;;5138915;27;20127;-37
2021/09/20 04:16:17;;;;;;;5.75;3.42;;;12.50;73.30;;;;;;5139103;27;20027;-39
2021/09/20 04:18:43;;;;;;;8.88;2.50;;;12.60;73.60;;;;;;5138857;27;20031;-38
2021/09/20 04:21:09;;;;;;;3.63;2.30;;;12.50;73.50;;;;;;5138725;27;20020;-38
2021/09/20 04:23:35;;;;;;;10.63;2.47;;;12.50;73.60;;;;;;5139098;27;20368;-37
2021/09/20 04:26:01;;;;;;;3.25;1.90;;;12.60;73.50;;;;;;5138562;27;20023;-37
2021/09/20 04:28:27;;;;;;;2.53;1.58;;;12.60;73.80;;;;;;5138765;27;20038;-37
2021/09/20 04:30:52;;;;;;;4.55;2.00;;;12.50;73.50;;;;;;5138682;27;20030;-36
2021/09/20 04:33:20;;;;;;;3.25;1.33;;;12.60;73.50;;;;;;5138903;27;20365;-37
2021/09/20 04:35:47;;;;;;;2.85;1.88;;;12.60;73.40;;;;;;5138553;27;20092;-36
2021/09/20 04:38:13;;;;;;;8.75;3.55;;;12.60;73.50;;;;;;5139022;27;20031;-41
2021/09/20 04:40:39;;;;;;;2.88;1.88;;;12.60;73.50;;;;;;5138670;27;20131;-37
2021/09/20 04:43:10;;;;;;;5.97;2.63;;;12.60;73.40;;;;;;5138424;27;20024;-39
2021/09/20 04:45:37;;;;;;;4.55;2.20;;;12.60;73.50;;;;;;5138298;27;20072;-37
2021/09/20 04:48:03;;;;;;;2.50;1.92;;;12.60;73.40;;;;;;5138737;27;20041;-37
2021/09/20 04:50:29;;;;;;;3.70;1.90;;;12.70;73.50;;;;;;5138242;27;20027;-36
2021/09/20 04:52:54;;;;;;;3.78;2.53;;;12.70;73.30;;;;;;5138420;27;20087;-38
2021/09/20 04:55:20;;;;;;;2.78;1.73;;;12.70;73.40;;;;;;5137975;27;20347;-41
2021/09/20 04:57:46;;;;;;;3.88;1.70;;;12.70;73.30;;;;;;5138288;27;20430;-41
2021/09/20 05:00:12;;;;;;;2.30;1.80;;;12.70;72.90;;;;;;5138087;27;20090;-38
2021/09/20 05:02:38;;;;;;;3.60;2.05;;;12.70;73.00;;;;;;5138120;27;20035;-36
2021/09/20 05:05:05;;;;;;;5.15;2.58;;;12.70;73.10;;;;;;5137978;27;20114;-35
2021/09/20 05:07:31;;;;;;;5.53;2.45;;;12.70;73.10;;;;;;5138060;27;20147;-36
2021/09/20 05:09:56;;;;;;;2.53;1.63;;;12.80;73.20;;;;;;5137717;27;20114;-36
2021/09/20 05:12:22;;;;;;;4.00;2.00;;;12.80;73.00;;;;;;5138047;27;20426;-37
2021/09/20 05:14:47;;;;;;;4.10;1.67;;;12.80;73.00;;;;;;5138093;27;20031;-36
2021/09/20 05:17:13;;;;;;;6.65;3.33;;;12.90;72.70;;;;;;5137572;27;20035;-38
2021/09/20 05:19:39;;;;;;;5.45;2.08;;;12.90;72.70;;;;;;5137593;27;20102;-37
2021/09/20 05:22:05;;;;;;;2.38;1.40;;;13.00;72.70;;;;;;5137686;27;20019;-37
2021/09/20 05:24:31;;;;;;;4.10;1.70;;;13.00;72.40;;;;;;5137902;27;20027;-38
2021/09/20 05:26:57;;;;;;;3.55;2.00;;;13.00;72.50;;;;;;5137578;27;20038;-39
2021/09/20 05:29:22;;;;;;;4.43;1.88;;;13.00;72.30;;;;;;5137731;27;20084;-39
2021/09/20 05:31:48;;;;;;;3.38;1.80;;;13.00;72.10;;;;;;5137773;27;20370;-36
2021/09/20 05:34:14;;;;;;;3.55;1.70;;;13.10;72.30;;;;;;5137398;27;20096;-37
2021/09/20 05:36:40;;;;;;;4.78;3.50;;;13.10;71.90;;;;;;5137237;27;20095;-37
2021/09/20 05:39:05;;;;;;;2.88;1.80;;;13.10;72.10;;;;;;5131685;27;20322;-37
2021/09/20 05:41:31;;;;;;;2.47;1.73;;;13.10;72.10;;;;;;5136917;27;20075;-37
2021/09/20 05:43:57;;;;;;;2.05;1.30;;;13.20;71.90;;;;;;5137159;27;20128;-38
2021/09/20 05:46:23;;;;;;;4.00;2.00;;;13.20;71.30;;;;;;5136988;27;20107;-37
2021/09/20 05:48:48;;;;;;;4.82;2.28;;;13.20;71.50;;;;;;5136925;27;20426;-36
2021/09/20 05:51:15;;;;;;;1.35;1.05;;;13.20;71.50;;;;;;5136723;27;20034;-35
2021/09/20 05:53:41;;;;;;;1.80;1.15;;;13.20;71.50;;;;;;5136682;27;20080;-39
2021/09/20 05:56:07;;;;;;;7.18;2.03;;;13.30;71.40;;;;;;5136695;27;20446;-38
2021/09/20 05:58:33;;;;;;;4.30;2.45;;;13.40;71.40;;;;;;5136583;27;20035;-41
2021/09/20 06:00:58;;;;;;;4.20;1.63;;;13.30;71.20;;;;;;5136299;27;20063;-39
2021/09/20 06:03:24;;;;;;;2.15;1.10;;;13.40;71.30;;;;;;5118453;27;20129;-37
2021/09/20 06:05:49;;;;;;;2.65;1.08;;;13.40;71.00;;;;;;5136314;27;20415;-37
2021/09/20 06:08:15;;;;;;;1.58;1.17;;;13.50;70.90;;;;;;5137355;27;20122;-35
2021/09/20 06:10:41;;;;;;;7.07;2.28;;;13.50;70.70;;;;;;5136766;27;20033;-36
2021/09/20 06:13:07;;;;;;;5.53;1.30;;;13.60;70.50;;;;;;5137055;27;20076;-36
2021/09/20 06:15:36;;;;;;;1.60;1.02;;;13.60;70.20;;;;;;5136740;27;20076;-41
2021/09/20 06:18:03;;;;;;;4.07;1.42;;;13.60;70.00;;;;;;5136976;27;20039;-37
2021/09/20 06:20:29;;;;;;;5.45;1.05;;;13.60;70.00;;;;;;5136466;27;20031;-38
2021/09/20 06:22:55;;;;;;;1.60;1.00;;;13.70;70.10;;;;;;5136575;27;20108;-38
2021/09/20 06:25:21;;;;;;;9.68;4.80;;;13.70;70.10;;;;;;5136444;27;20031;-37
2021/09/20 06:27:46;;;;;;;3.60;1.10;;;13.70;70.30;;;;;;5136618;27;20049;-37
2021/09/20 06:30:13;;;;;;;2.92;1.33;;;13.80;69.80;;;;;;5136388;27;20027;-35
2021/09/20 06:32:39;;;;;;;3.00;1.35;;;13.80;69.80;;;;;;5136754;27;20023;-36
2021/09/20 06:35:06;;;;;;;2.58;1.48;;;13.80;69.30;;;;;;5136346;27;20049;-41
2021/09/20 06:37:32;;;;;;;1.30;1.10;;;13.80;69.20;;;;;;5136493;27;20110;-36
2021/09/20 06:39:58;;;;;;;1.17;0.80;;;13.80;69.40;;;;;;5136677;27;20432;-35
2021/09/20 06:42:24;;;;;;;5.20;2.20;;;13.80;69.20;;;;;;5136454;27;20324;-39
2021/09/20 06:44:51;;;;;;;1.27;1.00;;;13.80;69.30;;;;;;5136280;28;20027;-35
2021/09/20 06:47:18;;;;;;;3.28;1.10;;;13.80;69.00;;;;;;5136402;28;20343;-41
2021/09/20 06:49:44;;;;;;;2.22;1.17;;;13.80;69.00;;;;;;5136081;28;20027;-40
2021/09/20 06:52:10;;;;;;;2.60;0.98;;;13.90;68.90;;;;;;5136575;28;20533;-37
2021/09/20 06:54:35;;;;;;;3.00;1.15;;;13.90;69.10;;;;;;5135663;28;20122;-36
2021/09/20 06:57:01;;;;;;;1.67;1.17;;;13.90;69.00;;;;;;5136194;28;20110;-35
2021/09/20 06:59:27;;;;;;;0.95;0.60;;;14.00;69.20;;;;;;5136048;28;20027;-40
2021/09/20 07:01:52;;;;;;;1.38;0.98;;;14.00;68.70;;;;;;5136034;28;20043;-36
2021/09/20 07:04:18;;;;;;;1.73;0.88;;;14.00;68.40;;;;;;5136158;28;20054;-37
2021/09/20 07:06:45;;;;;;;0.70;0.70;;;14.10;68.80;;;;;;5136008;28;20085;-37
2021/09/20 07:09:12;;;;;;;0.90;0.77;;;14.10;68.10;;;;;;5136381;27;20025;-32
2021/09/20 07:11:38;;;;;;;1.48;0.70;;;14.10;68.30;;;;;;5140133;27;20023;-33
2021/09/20 07:14:04;;;;;;;11.63;1.58;;;14.10;68.10;;;;;;5130629;27;20038;-32
2021/09/20 07:16:30;;;;;;;3.33;0.77;;;14.10;67.80;;;;;;5137347;27;20273;-32
2021/09/20 07:18:56;;;;;;;3.97;1.17;;;14.10;68.00;;;;;;5139501;27;20043;-32
2021/09/20 07:21:24;;;;;;;2.33;1.00;;;14.10;68.20;;;;;;5139590;27;20031;-33
2021/09/20 07:23:51;;;;;;;5.70;1.73;;;14.10;68.30;;;;;;5139581;27;20032;-32
2021/09/20 07:26:18;;;;;;;3.95;1.58;;;14.20;68.10;;;;;;5139742;27;20023;-34
2021/09/20 07:28:44;;;;;;;1.77;0.95;;;14.20;68.00;;;;;;5140082;27;20027;-34
2021/09/20 07:31:10;;;;;;;3.72;0.95;;;14.20;68.10;;;;;;5139489;27;20034;-33
2021/09/20 07:33:36;;;;;;;12.48;4.55;;;14.20;68.40;;;;;;5139686;27;20055;-33
2021/09/20 07:36:02;;;;;;;2.03;1.10;;;14.20;68.30;;;;;;5138741;27;20480;-34
2021/09/20 07:38:27;;;;;;;4.43;1.40;;;14.30;68.50;;;;;;5140150;27;20039;-32
2021/09/20 07:40:53;;;;;;;2.72;0.90;;;14.30;68.10;;;;;;5139322;27;20399;-33
2021/09/20 07:43:19;;;;;;;4.68;0.90;;;14.30;68.20;;;;;;5140025;27;20081;-33
2021/09/20 07:45:44;;;;;;;1.95;0.60;;;14.30;68.20;;;;;;5139078;27;20102;-34
2021/09/20 07:48:10;;;;;;;5.60;1.13;;;14.30;67.90;;;;;;5139541;27;20361;-32
2021/09/20 07:50:36;;;;;;;1.98;0.88;;;14.40;68.30;;;;;;5139393;27;20019;-33
2021/09/20 07:53:01;;;;;;;3.17;0.88;;;14.40;68.30;;;;;;5139765;27;20035;-33
2021/09/20 07:55:34;;;;;;;0.80;0.80;;;14.50;68.20;;;;;;5138969;27;20115;-33
2021/09/20 07:58:00;;;;;;;1.30;1.00;;;14.50;67.70;;;;;;5139503;27;20080;-33
2021/09/20 08:00:26;;;;;;;4.57;0.98;;;14.60;67.40;;;;;;5139528;27;20335;-34
2021/09/20 08:02:52;;;;;;;2.50;0.93;;;14.60;67.80;;;;;;5138952;27;20035;-33
2021/09/20 08:05:17;;;;;;;2.20;1.10;;;14.60;67.20;;;;;;5134676;27;20031;-33
2021/09/20 08:07:43;;;;;;;2.05;1.00;;;14.60;67.20;;;;;;5139082;27;20051;-33
2021/09/20 08:10:10;;;;;;;1.50;0.85;;;14.60;67.50;;;;;;5138541;27;20046;-33
2021/09/20 08:12:36;;;;;;;6.25;1.60;;;14.60;67.20;;;;;;5138814;27;20034;-34
2021/09/20 08:15:02;;;;;;;9.57;2.40;;;14.60;67.30;;;;;;5119375;27;20319;-34
2021/09/20 08:17:28;;;;;;;5.03;1.15;;;14.60;67.20;;;;;;5138852;27;20418;-34
2021/09/20 08:19:54;;;;;;;5.07;1.27;;;14.60;67.40;;;;;;5138145;27;20023;-34
2021/09/20 08:22:20;;;;;;;2.35;1.10;;;14.70;67.40;;;;;;5138306;27;20354;-34
2021/09/20 08:24:46;;;;;;;0.95;0.82;;;14.70;67.20;;;;;;5138302;27;20035;-33
2021/09/20 08:27:11;;;;;;;1.20;0.80;;;14.70;66.80;;;;;;5138451;27;20588;-33
2021/09/20 08:29:37;;;;;;;5.38;2.60;;;14.70;66.70;;;;;;5138045;27;20023;-33
2021/09/20 08:32:07;;;;;;;3.05;0.80;;;14.70;66.80;;;;;;5138380;27;20027;-33
2021/09/20 08:34:33;;;;;;;0.95;0.82;;;14.70;66.90;;;;;;5138209;27;20042;-33
2021/09/20 08:36:59;;;;;;;2.03;1.08;;;14.70;66.70;;;;;;5138229;27;20211;-33
2021/09/20 08:39:25;;;;;;;1.77;0.80;;;14.80;66.80;;;;;;5137871;27;20427;-33
2021/09/20 08:41:51;;;;;;;6.45;2.17;;;14.80;66.60;;;;;;5138008;27;20111;-33
2021/09/20 08:44:18;;;;;;;0.93;0.82;;;14.80;66.70;;;;;;5137793;27;20216;-33
2021/09/20 08:46:47;;;;;;;0.60;0.60;;;14.80;66.30;;;;;;5137696;27;20030;-33
2021/09/20 08:49:14;;;;;;;2.47;1.02;;;14.90;66.20;;;;;;5138379;27;20292;-33
2021/09/20 08:51:40;;;;;;;4.00;2.08;;;14.90;66.50;;;;;;5138293;27;20319;-32
2021/09/20 08:54:06;;;;;;;1.08;0.98;;;14.90;66.60;;;;;;5138042;27;20051;-33
2021/09/20 08:56:34;;;;;;;9.98;1.50;;;14.90;66.60;;;;;;5137909;27;20037;-33
2021/09/20 08:59:00;;;;;;;6.05;1.60;;;14.90;66.60;;;;;;5137804;27;20031;-33
2021/09/20 09:01:27;;;;;;;4.88;1.25;;;14.90;66.80;;;;;;5137775;27;20023;-33
2021/09/20 09:04:12;;;;;;;13.82;4.00;;;14.90;66.90;;;;;;5137967;27;20350;-34
2021/09/20 09:06:38;;;;;;;6.35;1.88;;;15.00;66.90;;;;;;5137430;27;20058;-34
2021/09/20 09:09:03;;;;;;;5.57;2.38;;;15.00;66.80;;;;;;5137484;27;20100;-33
2021/09/20 09:11:29;;;;;;;4.93;1.55;;;15.10;66.90;;;;;;5136728;27;20023;-33
2021/09/20 09:13:58;;;;;;;3.38;1.00;;;15.10;66.60;;;;;;5137847;27;20041;-33
2021/09/20 09:16:28;;;;;;;7.20;1.25;;;15.10;67.00;;;;;;5137511;27;20075;-34
2021/09/20 09:19:05;;;;;;;1.80;1.30;;;15.20;66.10;;;;;;5137552;27;20046;-33
2021/09/20 09:21:36;;;;;;;1.45;1.35;;;15.20;66.10;;;;;;5137584;27;20027;-33
2021/09/20 09:24:13;;;;;;;2.15;1.17;;;15.20;66.10;;;;;;5137802;27;20035;-33
2021/09/20 09:26:58;;;;;;;2.17;1.02;;;15.30;65.60;;;;;;5137378;27;20068;-33
2021/09/20 09:29:24;;;;;;;4.82;1.10;;;15.20;65.90;;;;;;5137092;27;20123;-34
2021/09/20 09:31:53;;;;;;;1.60;1.00;;;15.20;66.10;;;;;;5136413;27;20415;-34
2021/09/20 09:34:21;;;;;;;2.10;1.30;;;15.30;66.20;;;;;;5137189;27;20088;-33
2021/09/20 09:36:48;;;;;;;4.28;1.00;;;15.30;66.10;;;;;;5137427;27;20070;-34
2021/09/20 09:39:14;;;;;;;2.45;1.10;;;15.30;65.90;;;;;;5137462;27;20058;-33
2021/09/20 09:41:43;;;;;;;8.70;2.03;;;15.30;65.80;;;;;;5136883;27;20106;-34
2021/09/20 09:44:12;;;;;;;4.20;1.35;;;15.30;65.90;;;;;;5137366;27;20323;-31
2021/09/20 09:46:43;;;;;;;8.55;1.98;;;15.30;65.90;;;;;;5136978;27;20051;-32
2021/09/20 09:49:17;;;;;;;5.45;1.20;;;15.30;66.10;;;;;;5137088;27;20357;-32
2021/09/20 09:52:09;;;;;;;2.13;1.10;;;15.30;65.80;;;;;;5137104;27;20040;-35
2021/09/20 09:54:36;;;;;;;2.45;1.40;;;15.40;65.60;;;;;;5136727;27;20059;-33
2021/09/20 09:57:21;;;;;;;1.42;0.77;;;15.40;65.80;;;;;;5137037;27;20059;-33
2021/09/20 09:59:55;;;;;;;12.40;1.70;;;15.40;65.50;;;;;;5137143;27;20038;-33
2021/09/20 10:02:25;;;;;;;1.55;1.25;;;15.40;65.70;;;;;;5136773;27;20031;-34
2021/09/20 10:05:00;;;;;;;5.32;1.52;;;15.40;65.50;;;;;;5136795;27;20092;-34
2021/09/20 10:07:32;;;;;;;1.83;1.23;;;15.50;65.60;;;;;;5136929;27;20076;-33
2021/09/20 10:10:01;;;;;;;1.05;0.95;;;15.50;65.50;;;;;;5136497;27;20032;-32
2021/09/20 10:12:28;;;;;;;7.55;2.22;;;15.50;65.30;;;;;;5136508;27;20031;-34
2021/09/20 10:14:56;;;;;;;6.53;2.83;;;15.50;65.30;;;;;;5136497;27;20027;-32
2021/09/20 10:17:24;;;;;;;3.92;1.17;;;15.60;64.90;;;;;;5136796;27;20091;-34
2021/09/20 10:19:50;;;;;;;4.78;1.20;;;15.60;64.60;;;;;;5136481;27;20023;-34
2021/09/20 10:22:17;;;;;;;7.93;1.25;;;15.60;64.90;;;;;;5136531;27;20062;-33
2021/09/20 10:24:47;;;;;;;1.83;1.15;;;15.70;65.30;;;;;;5136159;27;20054;-34
2021/09/20 10:27:15;;;;;;;4.13;1.37;;;15.70;64.80;;;;;;5136337;27;20023;-33
2021/09/20 10:29:47;;;;;;;7.25;1.92;;;15.70;64.90;;;;;;5118013;27;20261;-34
2021/09/20 10:32:13;;;;;;;2.38;2.03;;;15.70;64.70;;;;;;5136488;27;20107;-34
2021/09/20 10:34:39;;;;;;;2.78;1.08;;;15.70;64.40;;;;;;5136453;27;20035;-33
2021/09/20 10:37:11;;;;;;;3.45;1.27;;;15.80;64.30;;;;;;5136335;27;20023;-33
2021/09/20 10:39:48;;;;;;;3.35;2.47;;;15.80;64.30;;;;;;5136266;27;20378;-33
2021/09/20 10:42:33;;;;;;;1.73;1.33;;;15.80;64.00;;;;;;5126730;28;20023;-34
2021/09/20 10:45:00;;;;;;;6.35;2.70;;;15.80;64.10;;;;;;5104760;28;20036;-33
2021/09/20 10:47:41;;;;;;;3.53;1.35;;;15.70;64.20;;;;;;5130385;28;20066;-33
2021/09/20 10:50:08;;;;;;;4.80;1.77;;;15.70;64.00;;;;;;5135955;28;20119;-34
2021/09/20 10:52:34;;;;;;;6.25;2.90;;;15.70;64.30;;;;;;5135935;28;20031;-34
2021/09/20 10:55:10;;;;;;;8.10;2.45;;;15.70;64.30;;;;;;5135566;28;20315;-33
2021/09/20 10:57:36;;;;;;;3.38;1.45;;;15.70;64.10;;;;;;5135865;28;20399;-33
2021/09/20 11:00:28;;;;;;;2.38;1.20;;;15.70;64.00;;;;;;5135857;28;20140;-34
2021/09/20 11:02:54;;;;;;;2.47;1.42;;;15.70;63.90;;;;;;5131909;28;20039;-32
2021/09/20 11:05:26;;;;;;;4.20;1.90;;;15.70;63.90;;;;;;5135543;28;20034;-32
2021/09/20 11:07:51;;;;;;;5.15;1.73;;;15.80;63.90;;;;;;5135555;28;20072;-32
2021/09/20 11:10:29;;;;;;;5.28;1.35;;;15.80;64.10;;;;;;5130101;28;20019;-32
2021/09/20 11:12:59;;;;;;;3.38;1.17;;;15.80;63.80;;;;;;5136011;28;20059;-33
2021/09/20 11:15:26;;;;;;;2.47;1.40;;;15.80;63.50;;;;;;5135264;28;20042;-33
2021/09/20 11:17:52;;;;;;;4.18;1.50;;;15.80;64.00;;;;;;5136156;28;20031;-33
2021/09/20 11:20:29;;;;;;;2.03;1.48;;;15.90;64.30;;;;;;5135871;28;20043;-32
2021/09/20 11:23:19;;;;;;;2.08;1.48;;;15.90;64.20;;;;;;5135687;28;20330;-33
2021/09/20 11:26:04;;;;;;;1.75;1.08;;;16.00;64.10;;;;;;5135534;28;20076;-32
2021/09/20 11:28:35;;;;;;;1.88;1.45;;;16.10;64.10;;;;;;5135575;28;20080;-33
2021/09/20 11:31:01;;;;;;;4.78;1.70;;;16.10;63.80;;;;;;5135214;28;20023;-34
2021/09/20 11:33:34;;;;;;;1.90;1.70;;;16.10;63.90;;;;;;5135714;28;20027;-33
2021/09/20 11:35:59;;;;;;;5.95;2.05;;;16.10;64.00;;;;;;5134645;28;20030;-33
2021/09/20 11:38:25;;;;;;;2.88;1.70;;;16.10;64.10;;;;;;5134737;28;20157;-33
2021/09/20 11:40:51;;;;;;;2.97;1.45;;;16.10;64.00;;;;;;5135267;28;20027;-34
2021/09/20 11:43:16;;;;;;;2.17;1.67;;;16.10;64.00;;;;;;5135038;28;20031;-35
2021/09/20 11:45:42;;;;;;;8.25;3.13;;;16.00;64.00;;;;;;5133004;28;20417;-33
2021/09/20 11:48:20;;;;;;;5.68;2.10;;;16.00;64.50;;;;;;5117455;28;20092;-34
2021/09/20 11:50:45;;;;;;;4.32;1.70;;;15.90;64.70;;;;;;5114477;28;20030;-33
2021/09/20 11:53:15;;;;;;;7.72;1.77;;;15.90;64.90;;;;;;5114774;28;20146;-33
2021/09/20 11:55:43;;;;;;;2.72;1.65;;;15.90;65.50;;;;;;5123329;27;20043;-33
2021/09/20 11:58:12;;;;;;;4.68;1.88;;;15.80;65.50;;;;;;5114341;27;20088;-33
2021/09/20 12:00:41;;;;;;;7.10;1.90;;;15.80;65.50;;;;;;5121422;27;20211;-34
2021/09/20 12:03:09;;;;;;;4.57;2.00;;;15.80;65.60;;;;;;5118624;28;20023;-34
2021/09/20 12:05:37;;;;;;;9.13;2.20;;;15.70;65.70;;;;;;5117875;28;20024;-33
2021/09/20 12:08:08;;;;;;;5.00;2.05;;;15.70;66.00;;;;;;5117989;28;20023;-33
2021/09/20 12:10:36;;;;;;;;;;;15.70;66.00;;;;;;5118157;28;20319;-33
2021/09/20 12:13:13;;;;;;;2.25;1.80;;;15.70;65.90;;;;;;5118573;28;19968;-33
2021/09/20 12:15:42;;;;;;;2.70;1.88;;;15.60;66.00;;;;;;5117643;28;20454;-33
2021/09/20 12:18:23;;;;;;;1.80;1.70;;;15.60;66.30;;;;;;5118589;28;20028;-33
2021/09/20 12:20:59;;;;;;;8.95;2.33;;;15.60;66.00;;;;;;5117679;28;20035;-33
2021/09/20 12:23:36;;;;;;;1.73;1.45;;;15.60;66.30;;;;;;5117978;28;20036;-33
2021/09/20 12:26:07;;;;;;;3.97;1.50;;;15.60;66.20;;;;;;5117599;28;20031;-33
2021/09/20 12:28:38;;;;;;;2.17;1.75;;;15.70;66.40;;;;;;5117986;28;20085;-33
2021/09/20 12:31:06;;;;;;;6.50;3.95;;;15.70;66.20;;;;;;5117373;28;20393;-33
2021/09/20 12:33:50;;;;;;;7.53;3.63;;;15.70;66.10;;;;;;5116747;28;20040;-33
2021/09/20 12:36:29;;;;;;;1.83;1.38;;;15.80;66.30;;;;;;5117027;28;20019;-33
2021/09/20 12:39:14;;;;;;;7.90;2.58;;;15.80;65.90;;;;;;5117409;28;20035;-33
2021/09/20 12:41:44;;;;;;;5.88;2.30;;;15.90;66.00;;;;;;5116465;28;20110;-33
2021/09/20 12:44:13;;;;;;;10.57;3.05;;;15.90;65.90;;;;;;5116173;28;20484;-33
2021/09/20 12:46:40;;;;;;;1.30;1.10;;;15.90;65.60;;;;;;5117272;28;20426;-32
2021/09/20 12:49:07;;;;;;;1.40;1.27;;;15.90;65.60;;;;;;5117709;28;20328;-32